Airfield :
LOGIN :

Register | Disclaimer

   EN    FR    IT 

 










Legend :    VFR   Marginal VFR   IFR   Intensive IFR   Very Intensive IFR
Visi :
Ceiling :
>= 8 km
>= 3000ft
5 to 8 km
1000 to 3000 ft
1500m to 5 km
500 to 1000 ft
800 to 1500m
200 to 500 ft
< 800m
< 200 ft
Symbols :   Thunderstorms  Fog  Heavy snow  Heavy precipitations  Wind > 20 kt
SIGMETs :     Misc.  Thunderstorms  Icing  Turbulence  Mountain Waves  Volcanic Ashes






- Airport Elevation : 7 ft
- IATA code : XHE


LFTH - Hyeres

CURRENT METAR :
  • 252100Z AUTO 00000KT CAVOK 16/12 Q1011 NOSIG

EXPIRED METARs :
  • 252030Z AUTO VRB01KT CAVOK 17/12 Q1011 NOSIG
  • 252000Z AUTO VRB03KT CAVOK 17/13 Q1011 NOSIG
  • 251930Z AUTO 33003KT CAVOK 18/13 Q1011 TEMPO 25012KT
  • 251900Z AUTO 29004KT CAVOK 20/13 Q1011 NOSIG
  • 251830Z AUTO 27008KT CAVOK 20/13 Q1010 NOSIG

TAF TAF LFTH
Valid from the 25 at 21:00 until the 26 at 21:00 UTC


252000Z 2521/2621 VRB03KT CAVOK
BECMG 2609/2612 27015KT
PROB30
TEMPO 2612/2615 27015G25KT



MET'MAP, your aeronautical weather chart ! - Copyright ORBIFLY December 2007 - Disclaimer

ORBIFLY MET'MAP TEAM :

Programming & Development : Alexandra Zaïnal
Original concept : Baudouin d'Aumeries
Technical & hardware support : Manuel Goepfert
Assistance : Marc-Olivier Méhu




SOURCES & CREDITS :

   NOAA